Time;durP1;ratioP1;P1;durP2;ratioP2;P2;SDS_P1;SDS_P2;PMS_P1;PMS_P2;Temp;Humidity;BMP_temperature;BMP_pressure;BME280_temperature;BME280_humidity;BME280_pressure;Samples;Min_cycle;Max_cycle;Signal;HPM_P1;HPM_P2
2023/06/17 00:00:15;;;;;;;2.53;0.82;;;;;;;16.37;100.00;93920.50;5148989;27;21000;-72
2023/06/17 00:02:42;;;;;;;1.17;0.90;;;;;;;16.31;100.00;93923.59;5161745;27;20227;-72
2023/06/17 00:05:10;;;;;;;2.70;0.85;;;;;;;16.23;100.00;93927.44;5154921;27;20203;-72
2023/06/17 00:07:39;;;;;;;1.15;0.80;;;;;;;16.24;100.00;93917.31;5155107;27;20203;-73
2023/06/17 00:10:06;;;;;;;1.42;0.75;;;;;;;16.20;100.00;93914.53;5141420;27;20200;-73
2023/06/17 00:12:33;;;;;;;0.70;0.60;;;;;;;16.21;100.00;93921.56;5154497;27;20964;-73
2023/06/17 00:15:01;;;;;;;1.52;1.00;;;;;;;16.22;100.00;93914.94;5161333;27;20215;-72
2023/06/17 00:17:31;;;;;;;1.23;0.90;;;;;;;16.17;100.00;93914.50;5161356;27;20204;-72
2023/06/17 00:19:58;;;;;;;1.83;0.77;;;;;;;16.19;100.00;93901.25;5155921;27;20200;-72
2023/06/17 00:22:25;;;;;;;1.33;0.80;;;;;;;16.17;100.00;93907.09;5151581;27;20274;-73
2023/06/17 00:24:52;;;;;;;2.45;0.90;;;;;;;16.13;100.00;93911.75;5139957;27;20201;-72
2023/06/17 00:27:19;;;;;;;1.15;0.95;;;;;;;16.07;100.00;93909.75;5141228;27;20208;-72
2023/06/17 00:29:46;;;;;;;4.05;1.23;;;;;;;16.01;100.00;93901.13;5135498;27;20225;-72
2023/06/17 00:32:13;;;;;;;0.80;0.77;;;;;;;16.01;100.00;93906.59;5133443;27;20668;-72
2023/06/17 00:34:41;;;;;;;0.60;0.60;;;;;;;15.97;100.00;93905.81;5139240;27;20209;-71
2023/06/17 00:37:07;;;;;;;1.75;1.02;;;;;;;15.90;100.00;93903.78;5113222;28;20639;-72
2023/06/17 00:39:35;;;;;;;1.00;0.80;;;;;;;15.95;100.00;93908.13;5135964;27;20592;-72
2023/06/17 00:42:02;;;;;;;3.22;0.90;;;;;;;15.90;100.00;93905.72;5133336;27;20232;-73
2023/06/17 00:44:29;;;;;;;0.95;0.88;;;;;;;15.85;100.00;93908.84;5137663;27;20208;-72
2023/06/17 00:46:57;;;;;;;1.10;1.00;;;;;;;15.80;100.00;93907.22;5126573;28;20295;-73
2023/06/17 00:49:34;;;;;;;1.08;0.98;;;;;;;15.78;100.00;93914.22;5140762;27;20232;-72
2023/06/17 00:52:06;;;;;;;1.33;1.05;;;;;;;15.77;100.00;93901.72;5140306;27;20223;-73
2023/06/17 00:54:33;;;;;;;1.63;1.15;;;;;;;15.79;100.00;93913.06;5120803;27;20651;-72
2023/06/17 00:57:01;;;;;;;1.35;1.15;;;;;;;15.73;100.00;93901.69;5119660;27;20209;-73
2023/06/17 00:59:29;;;;;;;1.77;1.45;;;;;;;15.76;100.00;93913.81;5132286;27;20201;-73
2023/06/17 01:01:55;;;;;;;1.55;1.08;;;;;;;15.75;100.00;93914.97;5119263;27;20230;-72
2023/06/17 01:04:23;;;;;;;2.72;1.30;;;;;;;15.81;100.00;93902.53;5124467;27;20209;-73
2023/06/17 01:06:59;;;;;;;2.10;1.70;;;;;;;15.79;100.00;93911.13;5126889;27;20288;-73
2023/06/17 01:09:31;;;;;;;1.20;1.10;;;;;;;15.69;100.00;93906.34;5123382;27;20775;-72
2023/06/17 01:11:59;;;;;;;1.83;1.40;;;;;;;15.64;100.00;93910.22;5119711;27;20242;-72
2023/06/17 01:14:28;;;;;;;1.13;1.02;;;;;;;15.64;100.00;93907.47;5121590;27;20205;-72
2023/06/17 01:16:55;;;;;;;1.55;1.30;;;;;;;15.63;100.00;93897.72;5126434;27;20696;-72
2023/06/17 01:19:25;;;;;;;2.72;1.42;;;;;;;15.59;100.00;93898.84;5124812;27;20267;-72
2023/06/17 01:21:53;;;;;;;1.98;1.40;;;;;;;15.58;100.00;93898.06;5119175;27;20292;-72
2023/06/17 01:24:27;;;;;;;2.00;1.33;;;;;;;15.56;100.00;93892.22;5106660;27;20217;-72
2023/06/17 01:26:56;;;;;;;1.77;1.30;;;;;;;15.54;100.00;93894.50;5115098;27;20189;-73
2023/06/17 01:29:24;;;;;;;1.80;1.40;;;;;;;15.58;100.00;93895.31;5109796;27;20235;-73
2023/06/17 01:31:51;;;;;;;2.00;1.40;;;;;;;15.54;100.00;93894.50;5112569;28;20276;-72
2023/06/17 01:34:20;;;;;;;2.72;1.45;;;;;;;15.58;100.00;93897.28;5099183;27;20652;-72
2023/06/17 01:36:49;;;;;;;2.30;1.58;;;;;;;15.67;100.00;93896.97;5106398;27;20198;-72
2023/06/17 01:39:20;;;;;;;1.55;1.25;;;;;;;15.75;100.00;93893.13;5111256;28;20680;-72
2023/06/17 01:41:51;;;;;;;1.33;1.10;;;;;;;15.75;100.00;93893.13;5111675;28;20226;-73
2023/06/17 01:44:20;;;;;;;1.25;1.10;;;;;;;15.66;100.00;93889.94;5112077;28;20190;-73
2023/06/17 01:46:47;;;;;;;3.05;1.20;;;;;;;15.58;100.00;93884.41;5112114;28;20198;-74
2023/06/17 01:49:14;;;;;;;1.85;1.50;;;;;;;15.50;100.00;93888.22;5111890;28;20202;-74
2023/06/17 01:51:40;;;;;;;1.80;1.30;;;;;;;15.46;100.00;93887.38;5113533;27;20237;-72
2023/06/17 01:54:07;;;;;;;3.40;1.60;;;;;;;15.48;100.00;93890.53;5112043;27;20254;-72
2023/06/17 01:56:34;;;;;;;3.80;1.30;;;;;;;15.43;100.00;93879.97;5119667;27;20197;-70
2023/06/17 01:59:02;;;;;;;1.60;1.30;;;;;;;15.55;100.00;93887.91;5120943;27;20254;-73
2023/06/17 02:01:29;;;;;;;1.85;1.52;;;;;;;15.34;100.00;93887.66;5116205;27;20197;-73
2023/06/17 02:03:56;;;;;;;2.15;1.45;;;;;;;15.34;100.00;93895.06;5123870;27;20201;-73
2023/06/17 02:06:23;;;;;;;1.88;1.40;;;;;;;15.35;100.00;93891.19;5127904;27;20652;-73
2023/06/17 02:08:50;;;;;;;3.28;1.85;;;;;;;15.29;100.00;93885.31;5126722;27;20581;-73
2023/06/17 02:11:17;;;;;;;1.92;1.60;;;;;;;15.30;100.00;93889.59;5111445;28;20205;-72
2023/06/17 02:13:44;;;;;;;3.72;1.60;;;;;;;15.18;100.00;93887.13;5111577;27;20197;-72
2023/06/17 02:16:12;;;;;;;2.60;1.92;;;;;;;15.17;100.00;93891.03;5111482;28;20232;-71
2023/06/17 02:18:39;;;;;;;3.90;1.50;;;;;;;15.18;100.00;93884.38;5119388;27;20197;-72
2023/06/17 02:21:06;;;;;;;4.97;2.15;;;;;;;15.24;100.00;93885.63;5119861;27;20201;-72
2023/06/17 02:23:32;;;;;;;1.98;1.40;;;;;;;15.25;100.00;93888.00;5129385;27;20633;-72
2023/06/17 02:25:59;;;;;;;2.67;2.15;;;;;;;15.20;100.00;93890.25;5118213;27;20198;-72
2023/06/17 02:28:26;;;;;;;2.20;1.85;;;;;;;15.20;100.00;93895.72;5110800;28;20570;-72
2023/06/17 02:30:53;;;;;;;1.77;1.52;;;;;;;15.16;100.00;93890.25;5111388;28;20198;-72
2023/06/17 02:33:21;;;;;;;4.32;1.80;;;;;;;15.09;100.00;93879.25;5098467;27;20263;-72
2023/06/17 02:35:48;;;;;;;2.60;1.52;;;;;;;15.11;100.00;93882.38;5124835;27;20201;-72
2023/06/17 02:38:15;;;;;;;3.33;2.00;;;;;;;15.11;100.00;93887.06;5111064;28;20208;-71
2023/06/17 02:40:42;;;;;;;5.05;1.80;;;;;;;15.08;100.00;93887.78;5109941;28;20250;-72
2023/06/17 02:43:09;;;;;;;1.83;1.50;;;;;;;15.04;100.00;93878.78;5097983;28;20630;-71
2023/06/17 02:45:35;;;;;;;2.00;1.58;;;;;;;14.98;100.00;93889.25;5107900;28;20202;-72
2023/06/17 02:48:02;;;;;;;3.15;1.95;;;;;;;14.96;100.00;93880.66;5102981;28;20259;-72
2023/06/17 02:50:30;;;;;;;2.20;1.60;;;;;;;14.93;100.00;93884.91;5113497;27;20189;-72
2023/06/17 02:52:57;;;;;;;5.55;3.90;;;;;;;14.89;100.00;93900.47;5128516;27;20197;-72
2023/06/17 02:55:25;;;;;;;3.03;2.38;;;;;;;14.91;100.00;93895.41;5115935;27;20250;-72
2023/06/17 02:57:52;;;;;;;2.80;1.75;;;;;;;15.00;100.00;93897.06;5110256;28;20209;-72
2023/06/17 03:00:18;;;;;;;2.20;1.48;;;;;;;15.02;100.00;93900.22;5120820;27;20255;-72
2023/06/17 03:02:45;;;;;;;3.03;1.67;;;;;;;14.99;100.00;93903.69;5129969;27;20221;-72
2023/06/17 03:05:12;;;;;;;1.83;1.20;;;;;;;14.93;100.00;93898.56;5116017;27;20250;-72
2023/06/17 03:07:40;;;;;;;1.55;1.42;;;;;;;14.96;100.00;93901.69;5110756;28;20229;-72
2023/06/17 03:10:08;;;;;;;1.63;1.33;;;;;;;14.98;100.00;93905.63;5118430;27;20189;-72
2023/06/17 03:12:35;;;;;;;1.58;1.40;;;;;;;15.02;100.00;93900.22;5121959;27;20216;-71
2023/06/17 03:15:02;;;;;;;1.77;1.48;;;;;;;14.98;100.00;93910.28;5110495;28;20310;-71
2023/06/17 03:17:29;;;;;;;1.75;1.48;;;;;;;15.01;100.00;93910.34;5109776;28;20248;-71
2023/06/17 03:19:59;;;;;;;1.98;1.73;;;;;;;14.97;100.00;93908.72;5110225;28;20205;-72
2023/06/17 03:22:25;;;;;;;1.55;1.33;;;;;;;14.93;100.00;93914.91;5113640;28;20240;-71
2023/06/17 03:24:54;;;;;;;2.42;1.67;;;;;;;14.98;100.00;93921.19;5119436;27;20208;-71
2023/06/17 03:27:20;;;;;;;2.08;1.63;;;;;;;14.96;100.00;93918.06;5126257;27;20204;-71
2023/06/17 03:29:48;;;;;;;2.05;1.85;;;;;;;15.00;100.00;93919.69;5126240;27;20668;-71
2023/06/17 03:32:15;;;;;;;5.55;2.40;;;;;;;15.04;100.00;93914.25;5099752;28;20198;-71
2023/06/17 03:34:42;;;;;;;2.15;1.50;;;;;;;15.04;100.00;93920.47;5119069;27;20223;-71
2023/06/17 03:37:09;;;;;;;2.28;1.80;;;;;;;14.97;100.00;93914.97;5128471;27;20626;-71
2023/06/17 03:39:36;;;;;;;2.38;1.92;;;;;;;14.99;100.00;93929.00;5112907;27;20237;-71
2023/06/17 03:42:05;;;;;;;1.90;1.63;;;;;;;15.02;100.00;93922.03;5109642;28;20228;-71
2023/06/17 03:44:31;;;;;;;1.98;1.77;;;;;;;14.99;100.00;93929.00;5109948;28;20727;-71
2023/06/17 03:46:59;;;;;;;2.03;1.60;;;;;;;14.97;100.00;93927.81;5111288;28;20664;-71
2023/06/17 03:49:26;;;;;;;2.47;1.65;;;;;;;14.93;100.00;93931.28;5120677;28;20215;-72
2023/06/17 03:51:53;;;;;;;1.95;1.48;;;;;;;15.08;100.00;93934.16;5120567;28;20199;-72
2023/06/17 03:54:19;;;;;;;2.42;1.80;;;;;;;15.05;100.00;93943.09;5109002;28;20687;-72
2023/06/17 03:56:46;;;;;;;2.30;1.80;;;;;;;15.03;100.00;93945.44;5120515;28;20201;-72
2023/06/17 03:59:16;;;;;;;2.28;1.80;;;;;;;15.07;100.00;93940.78;5121784;28;20681;-72
2023/06/17 04:01:43;;;;;;;6.00;1.83;;;;;;;15.09;100.00;93943.94;5109718;28;20185;-72
2023/06/17 04:04:10;;;;;;;1.75;1.55;;;;;;;15.07;100.00;93947.03;5103904;28;20670;-72
2023/06/17 04:06:37;;;;;;;2.83;1.92;;;;;;;15.01;100.00;93950.47;5109475;28;20263;-72
2023/06/17 04:09:05;;;;;;;3.20;1.70;;;;;;;15.08;100.00;93953.25;5111664;28;20969;-72
2023/06/17 04:11:32;;;;;;;2.20;1.75;;;;;;;14.97;100.00;93949.63;5115126;28;20229;-72
2023/06/17 04:13:59;;;;;;;3.80;1.90;;;;;;;15.01;100.00;93955.94;5124576;28;20199;-72
2023/06/17 04:16:30;;;;;;;1.70;1.60;;;;;;;15.09;100.00;93960.28;5127414;28;20258;-71
2023/06/17 04:18:57;;;;;;;2.00;1.70;;;;;;;15.06;100.00;93959.09;5101268;28;20684;-71
2023/06/17 04:21:24;;;;;;;2.20;1.60;;;;;;;15.12;100.00;93959.56;5118094;28;20395;-71
2023/06/17 04:23:51;;;;;;;2.08;1.38;;;;;;;15.11;100.00;93966.16;5126535;28;20225;-71
2023/06/17 04:26:18;;;;;;;1.50;1.33;;;;;;;15.12;100.00;93967.75;5102094;28;20229;-71
2023/06/17 04:28:45;;;;;;;1.60;1.40;;;;;;;15.13;100.00;93967.38;5111540;28;20210;-71
2023/06/17 04:31:12;;;;;;;4.53;1.20;;;;;;;15.12;100.00;93970.47;5113382;28;20238;-72
2023/06/17 04:33:41;;;;;;;2.42;1.20;;;;;;;15.24;100.00;93970.22;5110867;28;20202;-72
2023/06/17 04:36:09;;;;;;;3.25;1.60;;;;;;;15.25;100.00;93964.38;5112325;27;20193;-72
2023/06/17 04:38:38;;;;;;;1.88;1.13;;;;;;;15.22;100.00;93967.06;5120674;27;20196;-71
2023/06/17 04:41:05;;;;;;;1.13;1.02;;;;;;;15.19;100.00;93970.53;5123424;27;20622;-72
2023/06/17 04:43:34;;;;;;;1.45;1.15;;;;;;;15.22;100.00;93975.25;5113338;28;20209;-71
2023/06/17 04:46:01;;;;;;;1.45;1.10;;;;;;;15.15;100.00;93975.19;5112920;28;20217;-72
2023/06/17 04:48:29;;;;;;;1.45;1.05;;;;;;;15.20;100.00;93972.91;5117325;27;20334;-71
2023/06/17 04:50:57;;;;;;;1.15;1.05;;;;;;;15.20;100.00;93972.09;5126805;27;20200;-71
2023/06/17 04:53:24;;;;;;;1.10;1.00;;;;;;;15.25;100.00;93974.50;5113298;28;20197;-71
2023/06/17 04:55:51;;;;;;;1.38;1.05;;;;;;;15.30;100.00;93982.38;5112831;28;20724;-71
2023/06/17 04:58:18;;;;;;;2.78;0.80;;;;;;;15.27;100.00;93972.19;5112618;28;20198;-71
2023/06/17 05:00:45;;;;;;;2.28;1.05;;;;;;;15.19;100.00;93968.59;5113133;28;20213;-71
2023/06/17 05:03:12;;;;;;;1.15;0.98;;;;;;;15.20;100.00;93969.38;5113109;28;20232;-71
2023/06/17 05:05:39;;;;;;;1.70;0.90;;;;;;;15.19;100.00;93970.53;5108594;27;20230;-71
2023/06/17 05:08:07;;;;;;;1.67;1.10;;;;;;;15.07;100.00;93973.50;5105392;27;20209;-71
2023/06/17 05:10:33;;;;;;;1.95;1.38;;;;;;;15.10;100.00;93975.50;5105372;27;20205;-71
2023/06/17 05:13:00;;;;;;;1.80;1.17;;;;;;;15.17;100.00;93978.34;5110401;27;20198;-72
2023/06/17 05:15:27;;;;;;;2.22;1.55;;;;;;;15.10;100.00;93972.78;5109795;27;20263;-70
2023/06/17 05:17:54;;;;;;;2.35;0.90;;;;;;;15.11;100.00;93982.53;5103357;27;20477;-70
2023/06/17 05:20:20;;;;;;;3.22;1.30;;;;;;;15.14;100.00;93979.06;5110867;27;20191;-70
2023/06/17 05:22:47;;;;;;;1.65;1.33;;;;;;;15.17;100.00;93987.28;5109077;27;20225;-70
2023/06/17 05:25:15;;;;;;;2.42;1.80;;;;;;;15.14;100.00;93984.53;5107253;27;20605;-70
2023/06/17 05:27:42;;;;;;;1.67;1.35;;;;;;;15.14;100.00;93985.31;5104200;27;20194;-71
2023/06/17 05:30:09;;;;;;;1.55;1.08;;;;;;;15.11;100.00;93986.06;5105318;27;20190;-70
2023/06/17 05:32:36;;;;;;;2.67;1.10;;;;;;;15.01;100.00;93994.09;5108508;27;20554;-70
2023/06/17 05:35:04;;;;;;;1.15;0.75;;;;;;;14.91;100.00;93988.13;5105641;27;20271;-69
2023/06/17 05:37:31;;;;;;;1.45;0.95;;;;;;;14.98;100.00;93992.91;5101249;28;20291;-71
2023/06/17 05:39:58;;;;;;;1.73;1.10;;;;;;;14.88;100.00;93988.09;5101111;28;20201;-70
2023/06/17 05:42:26;;;;;;;1.90;1.00;;;;;;;14.89;100.00;93995.13;5110006;27;20626;-71
2023/06/17 05:44:53;;;;;;;1.48;1.10;;;;;;;14.92;100.00;93995.16;5108341;28;20607;-70
2023/06/17 05:47:19;;;;;;;1.08;0.88;;;;;;;14.86;100.00;93987.69;5103968;28;20515;-70
2023/06/17 05:49:46;;;;;;;1.88;0.93;;;;;;;14.79;100.00;93980.19;5109477;28;20210;-70
2023/06/17 05:52:13;;;;;;;1.08;0.80;;;;;;;14.85;100.00;93992.34;5109492;28;20197;-71
2023/06/17 05:54:40;;;;;;;2.85;1.00;;;;;;;14.87;100.00;93987.31;5101513;28;20216;-71
2023/06/17 05:57:07;;;;;;;2.28;1.08;;;;;;;14.81;100.00;93994.25;5105283;28;20209;-70
2023/06/17 05:59:35;;;;;;;1.55;1.10;;;;;;;14.83;100.00;93991.94;5101503;28;20198;-71
2023/06/17 06:02:01;;;;;;;2.42;1.30;;;;;;;14.81;100.00;93988.78;5090729;28;20206;-71
2023/06/17 06:04:28;;;;;;;1.75;1.20;;;;;;;14.93;100.00;93983.09;5090643;28;20242;-71
2023/06/17 06:06:55;;;;;;;1.55;1.20;;;;;;;14.91;100.00;93977.22;5102940;27;20206;-71
2023/06/17 06:09:22;;;;;;;0.80;0.80;;;;;;;14.84;100.00;93977.16;5109611;27;20202;-71
2023/06/17 06:11:49;;;;;;;1.67;0.70;;;;;;;14.86;100.00;93974.84;5094110;27;20264;-71
2023/06/17 06:14:15;;;;;;;2.47;1.70;;;;;;;14.90;100.00;93986.56;5100387;28;20198;-71
2023/06/17 06:16:43;;;;;;;1.00;0.77;;;;;;;14.99;100.00;93993.69;5107296;27;20251;-70
2023/06/17 06:19:10;;;;;;;1.75;1.25;;;;;;;15.16;100.00;93993.91;5100981;27;20247;-70
2023/06/17 06:21:37;;;;;;;2.88;1.42;;;;;;;15.27;100.00;93994.03;5113654;27;20623;-70
2023/06/17 06:24:05;;;;;;;1.58;1.23;;;;;;;15.34;100.00;93996.81;5112528;27;20732;-70
2023/06/17 06:26:32;;;;;;;1.02;0.85;;;;;;;15.48;100.00;93999.72;5113428;27;20197;-70
2023/06/17 06:28:58;;;;;;;1.95;0.80;;;;;;;15.58;100.00;94004.53;5109342;27;20259;-70
2023/06/17 06:31:25;;;;;;;2.38;1.83;;;;;;;15.45;100.00;94011.38;5113504;27;20205;-69
2023/06/17 06:33:53;;;;;;;2.33;1.17;;;;;;;15.48;100.00;94007.91;5109301;28;20250;-70
2023/06/17 06:36:20;;;;;;;2.47;1.15;;;;;;;15.64;100.00;94011.22;5112178;27;20242;-71
2023/06/17 06:38:50;;;;;;;1.90;1.10;;;;;;;15.61;100.00;94008.47;5107282;28;20200;-71
2023/06/17 06:41:19;;;;;;;6.88;2.35;;;;;;;15.79;100.00;94006.69;5109162;28;20257;-71
2023/06/17 06:43:46;;;;;;;1.88;1.10;;;;;;;15.67;100.00;94011.66;5093013;28;20333;-71
2023/06/17 06:46:13;;;;;;;2.20;1.02;;;;;;;15.75;100.00;94008.59;5105282;27;20198;-71
2023/06/17 06:48:40;;;;;;;0.90;0.80;;;;;;;15.72;100.00;94003.88;5103227;27;20202;-70
2023/06/17 06:51:08;;;;;;;0.82;0.75;;;;;;;15.79;100.00;94003.97;5103104;27;20262;-71
2023/06/17 06:53:34;;;;;;;3.13;1.38;;;;;;;15.84;100.00;94002.84;5107627;28;20209;-71
2023/06/17 06:56:01;;;;;;;1.92;0.85;;;;;;;15.95;100.00;94001.78;5103732;28;20259;-71
2023/06/17 06:58:28;;;;;;;0.70;0.70;;;;;;;16.15;100.00;94005.06;5099362;28;20198;-72
2023/06/17 07:00:55;;;;;;;1.13;0.90;;;;;;;16.17;100.00;94002.75;5093692;27;20231;-71
2023/06/17 07:03:21;;;;;;;1.13;0.98;;;;;;;16.07;100.00;93997.19;5105610;27;20707;-71
2023/06/17 07:05:48;;;;;;;1.20;1.00;;;;;;;16.05;100.00;93996.78;5105482;28;20246;-71
2023/06/17 07:08:16;;;;;;;4.47;1.00;;;;;;;16.00;100.00;93995.16;5105663;28;20198;-71
2023/06/17 07:10:43;;;;;;;0.98;0.88;;;;;;;16.08;100.00;93991.34;5117188;27;20609;-71
2023/06/17 07:13:10;;;;;;;1.27;1.10;;;;;;;16.13;100.00;93991.00;5101304;27;20222;-71
2023/06/17 07:15:36;;;;;;;1.00;0.90;;;;;;;16.25;100.00;93993.44;5093214;28;20201;-71
2023/06/17 07:18:03;;;;;;;4.35;1.30;;;;;;;16.23;100.00;93997.72;5110564;27;20197;-71
2023/06/17 07:20:30;;;;;;;0.88;0.88;;;;;;;16.45;100.00;93998.66;5109497;27;20222;-72
2023/06/17 07:22:57;;;;;;;0.98;0.88;;;;;;;16.43;100.00;93998.25;5104648;27;20225;-73
2023/06/17 07:25:26;;;;;;;1.00;0.90;;;;;;;16.73;100.00;94000.81;5090375;28;20788;-72
2023/06/17 07:27:56;;;;;;;2.25;1.00;;;;;;;16.95;100.00;93997.81;5106281;28;20289;-73
2023/06/17 07:30:23;;;;;;;1.15;0.98;;;;;;;16.95;100.00;93997.81;5096438;28;20255;-72
2023/06/17 07:32:50;;;;;;;1.98;0.82;;;;;;;17.00;100.00;94002.94;5099809;28;20715;-73
2023/06/17 07:35:17;;;;;;;1.10;1.00;;;;;;;16.98;100.00;93994.31;5104399;28;20201;-72
2023/06/17 07:37:44;;;;;;;2.60;1.88;;;;;;;16.85;100.00;93993.09;5107887;28;20195;-75
2023/06/17 07:40:12;;;;;;;1.23;1.00;;;;;;;17.03;100.00;94010.38;5107646;28;20209;-74
2023/06/17 07:42:41;;;;;;;1.63;1.20;;;;;;;17.41;100.00;94013.66;5108187;28;20319;-72
2023/06/17 07:45:08;;;;;;;3.38;2.15;;;;;;;17.56;100.00;94015.28;5108384;28;20240;-71
2023/06/17 07:47:35;;;;;;;1.40;0.90;;;;;;;17.37;100.00;94019.13;5108745;28;20201;-71
2023/06/17 07:50:04;;;;;;;0.90;0.90;;;;;;;17.53;100.00;94010.56;5104441;28;20201;-71
2023/06/17 07:52:32;;;;;;;1.90;0.90;;;;;;;17.66;100.00;94019.25;5105798;28;20293;-71
2023/06/17 07:54:59;;;;;;;2.70;1.10;;;;;;;17.35;100.00;94021.50;5108224;28;20214;-70
2023/06/17 07:57:26;;;;;;;1.50;1.10;;;;;;;17.18;100.00;94013.19;5117943;28;20771;-70
2023/06/17 07:59:54;;;;;;;1.52;1.10;;;;;;;17.22;100.00;94022.22;5113090;28;20288;-69
2023/06/17 08:02:22;;;;;;;1.13;1.00;;;;;;;17.04;100.00;94017.44;5091576;28;20256;-70
2023/06/17 08:04:49;;;;;;;1.20;0.95;;;;;;;17.00;100.00;94022.09;5106522;27;20718;-70
2023/06/17 08:07:16;;;;;;;0.85;0.85;;;;;;;17.17;100.00;94025.31;5111963;27;20285;-71
2023/06/17 08:09:43;;;;;;;0.80;0.80;;;;;;;16.99;100.00;94031.47;5111961;28;20288;-71
2023/06/17 08:12:09;;;;;;;2.17;0.70;;;;;;;16.98;100.00;94021.69;5114805;27;20275;-71
2023/06/17 08:14:38;;;;;;;1.17;0.80;;;;;;;17.03;100.00;94037.75;5104671;27;20202;-72
2023/06/17 08:17:06;;;;;;;0.70;0.70;;;;;;;17.07;100.00;94031.53;5084941;27;20224;-72
2023/06/17 08:19:33;;;;;;;2.75;0.90;;;;;;;16.94;100.00;94037.31;5109408;28;20247;-72
2023/06/17 08:22:00;;;;;;;1.90;0.90;;;;;;;16.95;100.00;94030.66;5111728;28;20221;-71
2023/06/17 08:24:27;;;;;;;0.85;0.80;;;;;;;16.92;100.00;94031.44;5109102;28;20667;-72
2023/06/17 08:26:55;;;;;;;4.28;1.10;;;;;;;16.75;100.00;94026.63;5110239;28;20201;-71
2023/06/17 08:29:22;;;;;;;1.38;0.95;;;;;;;16.69;100.00;94037.13;5108163;27;20202;-71
2023/06/17 08:31:51;;;;;;;3.75;1.30;;;;;;;16.80;100.00;94029.03;5107721;27;20401;-71
2023/06/17 08:34:19;;;;;;;1.33;1.17;;;;;;;16.84;100.00;94035.28;5111304;27;20236;-71
2023/06/17 08:36:52;;;;;;;1.27;1.10;;;;;;;16.87;100.00;94031.78;5109346;28;20625;-71
2023/06/17 08:39:19;;;;;;;1.40;1.15;;;;;;;16.84;100.00;94038.00;5108941;27;20202;-71
2023/06/17 08:41:49;;;;;;;1.20;1.00;;;;;;;17.07;100.00;94034.25;5109043;27;20234;-71
2023/06/17 08:44:17;;;;;;;1.30;0.95;;;;;;;16.99;100.00;94042.41;5109104;27;20316;-71
2023/06/17 08:46:45;;;;;;;1.00;0.90;;;;;;;16.96;100.00;94036.91;5106397;27;20206;-70
2023/06/17 08:49:13;;;;;;;2.63;1.23;;;;;;;16.79;100.00;94038.38;5110905;27;20202;-70
2023/06/17 08:51:41;;;;;;;1.75;1.15;;;;;;;16.50;100.00;94033.84;5109654;27;20198;-70
2023/06/17 08:54:10;;;;;;;1.70;0.90;;;;;;;16.47;100.00;94031.88;5110098;27;20198;-71
2023/06/17 08:56:37;;;;;;;1.80;1.00;;;;;;;16.58;100.00;94038.19;5111430;28;20205;-71
2023/06/17 08:59:04;;;;;;;3.65;1.38;;;;;;;16.44;100.00;94038.88;5099376;28;20435;-72
2023/06/17 09:01:31;;;;;;;2.10;1.27;;;;;;;16.41;100.00;94028.69;5110484;28;20209;-71
2023/06/17 09:03:58;;;;;;;1.40;1.17;;;;;;;16.45;100.00;94034.19;5105360;27;20278;-71
2023/06/17 09:06:27;;;;;;;2.10;0.93;;;;;;;16.44;100.00;94027.94;5099291;28;20293;-70
2023/06/17 09:08:57;;;;;;;1.48;1.15;;;;;;;16.43;100.00;94031.06;5104492;27;20233;-71
2023/06/17 09:11:25;;;;;;;3.67;1.73;;;;;;;16.50;100.00;94033.84;5089903;28;20253;-69
2023/06/17 09:13:52;;;;;;;2.38;1.75;;;;;;;16.61;100.00;94034.72;5110595;28;20217;-70
2023/06/17 09:16:19;;;;;;;1.90;1.30;;;;;;;16.73;100.00;94028.19;5123346;27;20193;-71
2023/06/17 09:18:45;;;;;;;1.42;1.20;;;;;;;16.80;100.00;94033.72;5107692;27;20296;-73
2023/06/17 09:21:16;;;;;;;1.77;1.40;;;;;;;17.02;100.00;94029.91;5109810;28;20583;-73
2023/06/17 09:23:43;;;;;;;1.98;1.63;;;;;;;17.29;100.00;94022.22;5109717;27;20200;-71
2023/06/17 09:26:11;;;;;;;2.03;1.80;;;;;;;17.49;100.00;94020.75;5109669;28;20198;-71
2023/06/17 09:28:38;;;;;;;2.88;1.90;;;;;;;18.06;100.00;94016.19;5106904;27;20644;-73
2023/06/17 09:31:05;;;;;;;1.63;1.48;;;;;;;17.93;100.00;94027.94;5107163;28;20209;-73
2023/06/17 09:33:32;;;;;;;2.15;1.70;;;;;;;18.40;100.00;94027.59;5105786;27;20223;-73
2023/06/17 09:36:00;;;;;;;2.42;1.55;;;;;;;18.23;100.00;94020.13;5108758;28;20644;-72
2023/06/17 09:38:27;;;;;;;2.03;1.70;;;;;;;18.35;100.00;94025.22;5109853;28;20193;-73
2023/06/17 09:40:55;;;;;;;3.13;1.80;;;;;;;18.52;100.00;94026.41;5102057;27;20230;-73
2023/06/17 09:43:25;;;;;;;2.25;1.38;;;;;;;18.25;100.00;94023.28;5105494;27;20233;-73
2023/06/17 09:45:59;;;;;;;2.00;1.50;;;;;;;18.17;100.00;94027.19;5105996;27;20232;-74
2023/06/17 09:48:30;;;;;;;3.30;1.58;;;;;;;18.35;100.00;94036.19;5097791;27;20648;-74
2023/06/17 09:50:57;;;;;;;1.33;1.20;;;;;;;18.26;100.00;94033.06;5103697;27;20209;-73
2023/06/17 09:53:27;;;;;;;2.25;1.90;;;;;;;18.43;100.00;94029.56;5106125;27;20201;-73
2023/06/17 09:55:56;;;;;;;1.75;1.55;;;;;;;18.50;100.00;94033.47;5099930;27;20201;-74
2023/06/17 09:58:28;;;;;;;1.83;1.30;;;;;;;18.51;100.00;94035.03;5109969;27;20204;-74
2023/06/17 10:00:57;;;;;;;3.13;1.92;;;;;;;18.65;100.00;94029.56;5107172;27;20672;-74
2023/06/17 10:03:24;;;;;;;2.42;1.42;;;;;;;18.57;100.00;94038.97;5104754;27;20221;-73
2023/06/17 10:05:58;;;;;;;3.30;1.00;;;;;;;18.51;100.00;94046.00;5106412;27;20775;-72
2023/06/17 10:08:25;;;;;;;3.60;1.17;;;;;;;18.15;100.00;94046.00;5108105;28;20194;-74
2023/06/17 10:10:55;;;;;;;2.75;1.40;;;;;;;18.29;100.00;94040.53;5106495;28;20737;-73
2023/06/17 10:13:23;;;;;;;1.13;1.02;;;;;;;18.35;100.00;94046.38;5110369;27;20321;-73
2023/06/17 10:15:53;;;;;;;3.97;1.10;;;;;;;18.29;100.00;94046.00;5105739;28;20225;-75
2023/06/17 10:18:21;;;;;;;1.42;1.00;;;;;;;18.25;100.00;94049.91;5103884;27;20255;-75
2023/06/17 10:20:50;;;;;;;1.60;1.02;;;;;;;18.25;100.00;94039.72;5107358;27;20213;-76
2023/06/17 10:23:19;;;;;;;2.30;1.42;;;;;;;18.25;100.00;94058.94;5097290;27;20636;-73
2023/06/17 10:25:46;;;;;;;2.53;2.22;;;;;;;17.98;100.00;94053.00;5108990;28;20225;-73
2023/06/17 10:28:15;;;;;;;1.33;1.05;;;;;;;17.83;100.00;94056.09;5118955;27;20202;-73
2023/06/17 10:30:44;;;;;;;1.15;0.80;;;;;;;17.69;100.00;94054.88;5098049;27;20672;-73
2023/06/17 10:33:13;;;;;;;1.33;1.23;;;;;;;17.82;100.00;94060.78;5106674;28;20201;-74
2023/06/17 10:35:40;;;;;;;2.03;1.20;;;;;;;18.17;100.00;94062.84;5108517;28;20206;-74
2023/06/17 10:38:09;;;;;;;1.17;1.08;;;;;;;17.71;100.00;94060.75;5106311;28;20201;-72
2023/06/17 10:40:47;;;;;;;1.40;1.20;;;;;;;17.63;100.00;94061.91;5109613;28;20266;-74
2023/06/17 10:43:19;;;;;;;1.38;1.20;;;;;;;17.38;100.00;94061.75;5105108;28;20229;-74
2023/06/17 10:45:49;;;;;;;1.20;1.10;;;;;;;17.45;100.00;94063.75;5108880;28;20229;-74
2023/06/17 10:48:21;;;;;;;1.90;1.27;;;;;;;17.13;100.00;94062.81;5109640;28;20205;-72
2023/06/17 10:50:52;;;;;;;3.55;1.23;;;;;;;17.21;100.00;94067.97;5109637;28;20193;-71
2023/06/17 10:53:25;;;;;;;1.30;1.10;;;;;;;17.17;100.00;94063.63;5109291;28;20206;-71
2023/06/17 10:55:52;;;;;;;2.25;1.17;;;;;;;17.09;100.00;94067.47;5115102;27;20261;-70
2023/06/17 10:58:18;;;;;;;7.63;2.03;;;;;;;17.11;100.00;94062.41;5104693;27;20684;-72
2023/06/17 11:00:45;;;;;;;2.15;1.33;;;;;;;17.08;100.00;94061.25;5108946;28;20205;-71
2023/06/17 11:03:15;;;;;;;5.10;1.88;;;;;;;17.13;100.00;94071.03;5109620;28;20550;-71
2023/06/17 11:05:43;;;;;;;4.03;2.13;;;;;;;16.97;100.00;94072.09;5108670;28;20233;-71
2023/06/17 11:08:11;;;;;;;3.90;1.35;;;;;;;16.80;100.00;94072.00;5109670;28;20212;-71
2023/06/17 11:10:38;;;;;;;2.30;1.60;;;;;;;16.66;100.00;94083.63;5109332;28;20209;-70
2023/06/17 11:13:05;;;;;;;2.85;1.70;;;;;;;16.55;100.00;94077.22;5109367;28;20259;-72
2023/06/17 11:15:31;;;;;;;3.15;1.90;;;;;;;16.60;100.00;94080.41;5108924;28;20254;-71
2023/06/17 11:18:01;;;;;;;2.90;1.90;;;;;;;16.53;100.00;94079.59;5109319;28;20274;-71
2023/06/17 11:20:29;;;;;;;2.28;1.80;;;;;;;16.47;100.00;94086.56;5117256;27;20568;-73
2023/06/17 11:22:57;;;;;;;3.78;2.10;;;;;;;16.49;100.00;94078.75;5100908;27;20263;-72
2023/06/17 11:25:24;;;;;;;2.00;1.52;;;;;;;16.51;100.00;94081.91;5094939;28;20309;-70